Miles City, Montana
Current Conditions -  °F | °C
As of 3:53 PM on Friday 31 Oct 2014 (Local Time) from KMLS Reporting Station
Clear Clear  
Wind Chill: 56°   Ceiling: Unl
Heat Index: 56°   Visibility: 10mi
Dew Point: 33°   Wind: 15mph
Humidity: 42%   Direction: 140°SE
Pressure: 29.85"   Gusts: 25mph
Location:  46.41°N, 105.84°W
Report Text: KMLS 312153Z AUTO 14013G22KT 10SM CLR 13/01 A2985 RMK AO2 SLP117 T01330006
Loading
Personal Weather Stations






























Interactive Weather Map
Tropical Storm Tracking
New forecast layout! Learn more

10-Day Weather Forecast

Advertisements
Track Severe Weather on mobile